EZY55ED EGKK-EDDL
Flight info
| Callsign | EZY55ED |
|---|---|
| Flight time | 0h 57m |
| Altitude | 33000 |
| Route | DVR L9 KONAN DCT KOK UL607 SPI Y862 KENUM M170 NVO T857 BIKMU BIKMU1A |
| Aircraft | A320/M-SDE2E3FGHIJ1RWXYZ/LB1 |
Departure
| Time | 2026-05-04 17:52 |
|---|---|
| Airport | London Gatwick Airport (EGKK) |
Arrival
| Time | 2026-05-04 18:50 |
|---|---|
| Airport | Düsseldorf Airport (EDDL) |
| Time | Latitude | Longitude | Altitude | Speed | Heading |
|---|---|---|---|---|---|
| 2026-05-04 17:00 | 51.15817 | -0.17940 | 204 ft | 0 kts | 77° |
| 2026-05-04 17:31 | 51.15816 | -0.17948 | 204 ft | 3 kts | 77° |
| 2026-05-04 17:31 | 51.15806 | -0.18058 | 215 ft | 4 kts | 137° |
| 2026-05-04 17:32 | 51.15835 | -0.18076 | 215 ft | 0 kts | 167° |
| 2026-05-04 17:35 | 51.15730 | -0.18040 | 211 ft | 12 kts | 168° |
| 2026-05-04 17:35 | 51.15659 | -0.18227 | 208 ft | 9 kts | 252° |
| 2026-05-04 17:35 | 51.15640 | -0.18330 | 207 ft | 7 kts | 248° |
| 2026-05-04 17:36 | 51.15593 | -0.18348 | 212 ft | 9 kts | 166° |
| 2026-05-04 17:36 | 51.15517 | -0.18320 | 213 ft | 13 kts | 168° |
| 2026-05-04 17:36 | 51.15415 | -0.18289 | 204 ft | 17 kts | 171° |
| 2026-05-04 17:36 | 51.15301 | -0.18244 | 213 ft | 14 kts | 163° |
| 2026-05-04 17:37 | 51.15267 | -0.18232 | 208 ft | 1 kts | 170° |
| 2026-05-04 17:37 | 51.15266 | -0.18232 | 208 ft | 0 kts | 170° |
| 2026-05-04 17:38 | 51.15263 | -0.18231 | 209 ft | 2 kts | 170° |
| 2026-05-04 17:38 | 51.15236 | -0.18224 | 210 ft | 6 kts | 171° |
| 2026-05-04 17:38 | 51.15192 | -0.18253 | 209 ft | 9 kts | 246° |
| 2026-05-04 17:39 | 51.15157 | -0.18534 | 209 ft | 15 kts | 257° |
| 2026-05-04 17:39 | 51.15136 | -0.18689 | 203 ft | 14 kts | 257° |
| 2026-05-04 17:39 | 51.15115 | -0.18836 | 214 ft | 13 kts | 257° |
| 2026-05-04 17:40 | 51.15096 | -0.18971 | 214 ft | 13 kts | 258° |
| 2026-05-04 17:40 | 51.15078 | -0.19103 | 206 ft | 12 kts | 257° |
| 2026-05-04 17:40 | 51.15061 | -0.19234 | 204 ft | 13 kts | 258° |
| 2026-05-04 17:40 | 51.15041 | -0.19392 | 213 ft | 16 kts | 258° |
| 2026-05-04 17:41 | 51.15016 | -0.19584 | 210 ft | 19 kts | 262° |
| 2026-05-04 17:41 | 51.14984 | -0.19796 | 211 ft | 21 kts | 256° |
| 2026-05-04 17:41 | 51.14951 | -0.20037 | 205 ft | 23 kts | 258° |
| 2026-05-04 17:41 | 51.14915 | -0.20294 | 207 ft | 22 kts | 257° |
| 2026-05-04 17:42 | 51.14880 | -0.20535 | 211 ft | 22 kts | 258° |
| 2026-05-04 17:42 | 51.14849 | -0.20765 | 206 ft | 21 kts | 257° |
| 2026-05-04 17:42 | 51.14823 | -0.20961 | 211 ft | 17 kts | 258° |
| 2026-05-04 17:42 | 51.14798 | -0.21144 | 215 ft | 11 kts | 255° |
| 2026-05-04 17:43 | 51.14774 | -0.21239 | 206 ft | 9 kts | 257° |
| 2026-05-04 17:43 | 51.14762 | -0.21328 | 204 ft | 8 kts | 257° |
| 2026-05-04 17:43 | 51.14743 | -0.21399 | 212 ft | 6 kts | 225° |
| 2026-05-04 17:43 | 51.14727 | -0.21405 | 215 ft | 0 kts | 172° |
| 2026-05-04 17:45 | 51.14727 | -0.21404 | 215 ft | 1 kts | 171° |
| 2026-05-04 17:45 | 51.14693 | -0.21394 | 207 ft | 6 kts | 165° |
| 2026-05-04 17:45 | 51.14667 | -0.21368 | 214 ft | 0 kts | 136° |
| 2026-05-04 17:47 | 51.14663 | -0.21361 | 216 ft | 2 kts | 136° |
| 2026-05-04 17:47 | 51.14650 | -0.21343 | 211 ft | 3 kts | 142° |
| 2026-05-04 17:47 | 51.14622 | -0.21328 | 207 ft | 4 kts | 167° |
| 2026-05-04 17:48 | 51.14614 | -0.21325 | 205 ft | 0 kts | 167° |
| 2026-05-04 17:50 | 51.14596 | -0.21318 | 215 ft | 11 kts | 166° |
| 2026-05-04 17:50 | 51.14522 | -0.21228 | 212 ft | 15 kts | 124° |
| 2026-05-04 17:50 | 51.14521 | -0.21154 | 202 ft | 0 kts | 74° |
| 2026-05-04 17:51 | 51.14522 | -0.21150 | 202 ft | 3 kts | 74° |
| 2026-05-04 17:52 | 51.14569 | -0.20828 | 210 ft | 66 kts | 78° |
| 2026-05-04 17:52 | 51.14714 | -0.19765 | 215 ft | 128 kts | 77° |
| 2026-05-04 17:52 | 51.14920 | -0.18161 | 450 ft | 154 kts | 79° |
| 2026-05-04 17:52 | 51.15124 | -0.16491 | 1210 ft | 155 kts | 77° |
| 2026-05-04 17:53 | 51.15366 | -0.14731 | 1713 ft | 173 kts | 75° |
| 2026-05-04 17:53 | 51.15648 | -0.12781 | 2188 ft | 187 kts | 76° |
| 2026-05-04 17:53 | 51.15955 | -0.10673 | 2685 ft | 205 kts | 76° |
| 2026-05-04 17:53 | 51.16289 | -0.08344 | 3187 ft | 227 kts | 76° |
| 2026-05-04 17:54 | 51.16649 | -0.05753 | 3627 ft | 250 kts | 76° |
| 2026-05-04 17:54 | 51.16902 | -0.02955 | 3859 ft | 259 kts | 89° |
| 2026-05-04 17:54 | 51.16851 | -0.00074 | 4070 ft | 261 kts | 91° |
| 2026-05-04 17:54 | 51.16796 | 0.02822 | 4278 ft | 262 kts | 90° |
| 2026-05-04 17:55 | 51.16739 | 0.05726 | 4488 ft | 263 kts | 90° |
| 2026-05-04 17:55 | 51.16681 | 0.08658 | 4744 ft | 267 kts | 90° |
| 2026-05-04 17:55 | 51.16629 | 0.11628 | 5704 ft | 269 kts | 90° |
| 2026-05-04 17:55 | 51.16611 | 0.14629 | 6641 ft | 273 kts | 90° |
| 2026-05-04 17:56 | 51.16609 | 0.17681 | 7514 ft | 278 kts | 90° |
| 2026-05-04 17:56 | 51.16613 | 0.20780 | 8391 ft | 282 kts | 90° |
| 2026-05-04 17:56 | 51.16619 | 0.23932 | 9276 ft | 287 kts | 90° |
| 2026-05-04 17:56 | 51.16624 | 0.27132 | 10136 ft | 291 kts | 91° |
| 2026-05-04 17:57 | 51.16626 | 0.30483 | 10521 ft | 314 kts | 90° |
| 2026-05-04 17:57 | 51.16625 | 0.34044 | 11051 ft | 326 kts | 90° |
| 2026-05-04 17:57 | 51.16623 | 0.37638 | 11819 ft | 331 kts | 90° |
| 2026-05-04 17:57 | 51.16616 | 0.41367 | 12644 ft | 335 kts | 90° |
| 2026-05-04 17:58 | 51.16604 | 0.45092 | 13454 ft | 338 kts | 90° |
| 2026-05-04 17:58 | 51.16592 | 0.48855 | 14186 ft | 341 kts | 90° |
| 2026-05-04 17:58 | 51.16585 | 0.52604 | 14867 ft | 345 kts | 90° |
| 2026-05-04 17:58 | 51.16583 | 0.56442 | 15544 ft | 348 kts | 90° |
| 2026-05-04 17:59 | 51.16583 | 0.60318 | 16205 ft | 352 kts | 90° |
| 2026-05-04 17:59 | 51.16582 | 0.64235 | 16869 ft | 355 kts | 91° |
| 2026-05-04 17:59 | 51.16567 | 0.72191 | 18196 ft | 363 kts | 91° |
| 2026-05-04 18:00 | 51.16557 | 0.76228 | 18778 ft | 366 kts | 92° |
| 2026-05-04 18:00 | 51.16546 | 0.80297 | 19361 ft | 369 kts | 91° |
| 2026-05-04 18:00 | 51.16535 | 0.84403 | 19932 ft | 372 kts | 91° |
| 2026-05-04 18:00 | 51.16522 | 0.88544 | 20506 ft | 375 kts | 92° |
| 2026-05-04 18:01 | 51.16505 | 0.92718 | 21076 ft | 378 kts | 92° |
| 2026-05-04 18:01 | 51.16487 | 0.96928 | 21593 ft | 382 kts | 92° |
| 2026-05-04 18:01 | 51.16470 | 1.01194 | 22059 ft | 388 kts | 92° |
| 2026-05-04 18:02 | 51.16438 | 1.08448 | 22901 ft | 394 kts | 92° |
| 2026-05-04 18:02 | 51.16417 | 1.12776 | 23414 ft | 397 kts | 92° |
| 2026-05-04 18:02 | 51.16392 | 1.17188 | 23858 ft | 400 kts | 92° |
| 2026-05-04 18:02 | 51.16363 | 1.21636 | 24299 ft | 403 kts | 92° |
| 2026-05-04 18:03 | 51.16332 | 1.26112 | 24735 ft | 405 kts | 92° |
| 2026-05-04 18:03 | 51.16298 | 1.30616 | 25161 ft | 408 kts | 92° |
| 2026-05-04 18:03 | 51.16264 | 1.35147 | 25591 ft | 410 kts | 93° |
| 2026-05-04 18:03 | 51.16171 | 1.39695 | 26004 ft | 412 kts | 95° |
| 2026-05-04 18:04 | 51.15989 | 1.44272 | 26400 ft | 415 kts | 96° |
| 2026-05-04 18:04 | 51.15750 | 1.48862 | 26770 ft | 418 kts | 97° |
| 2026-05-04 18:04 | 51.15231 | 1.57947 | 27540 ft | 423 kts | 97° |
| 2026-05-04 18:05 | 51.14984 | 1.62418 | 27921 ft | 425 kts | 97° |
| 2026-05-04 18:05 | 51.14739 | 1.67122 | 28324 ft | 428 kts | 97° |
| 2026-05-04 18:05 | 51.14505 | 1.71859 | 28696 ft | 430 kts | 97° |
| 2026-05-04 18:05 | 51.14273 | 1.76627 | 29073 ft | 433 kts | 97° |
| 2026-05-04 18:06 | 51.13799 | 1.86224 | 29809 ft | 437 kts | 97° |
| 2026-05-04 18:06 | 51.13546 | 1.91071 | 30137 ft | 440 kts | 97° |
| 2026-05-04 18:06 | 51.13289 | 1.95910 | 30509 ft | 440 kts | 97° |
| 2026-05-04 18:07 | 51.13029 | 2.00780 | 30828 ft | 441 kts | 97° |
| 2026-05-04 18:07 | 51.12771 | 2.05651 | 31133 ft | 443 kts | 97° |
| 2026-05-04 18:07 | 51.12514 | 2.10553 | 31412 ft | 445 kts | 97° |
| 2026-05-04 18:07 | 51.12253 | 2.15462 | 31736 ft | 445 kts | 97° |
| 2026-05-04 18:08 | 51.11992 | 2.20364 | 31865 ft | 444 kts | 98° |
| 2026-05-04 18:08 | 51.11728 | 2.25259 | 31996 ft | 444 kts | 98° |
| 2026-05-04 18:08 | 51.11460 | 2.30146 | 32126 ft | 443 kts | 98° |
| 2026-05-04 18:08 | 51.11189 | 2.35033 | 32258 ft | 443 kts | 98° |
| 2026-05-04 18:09 | 51.10641 | 2.44787 | 32513 ft | 442 kts | 98° |
| 2026-05-04 18:09 | 51.10084 | 2.54526 | 32780 ft | 442 kts | 98° |
| 2026-05-04 18:10 | 51.09800 | 2.59388 | 32944 ft | 442 kts | 98° |
| 2026-05-04 18:10 | 51.09483 | 2.64223 | 33002 ft | 436 kts | 102° |
| 2026-05-04 18:10 | 51.07974 | 2.73491 | 33002 ft | 432 kts | 109° |
| 2026-05-04 18:11 | 51.06307 | 2.82677 | 33002 ft | 432 kts | 109° |
| 2026-05-04 18:11 | 51.04634 | 2.91861 | 32997 ft | 433 kts | 109° |
| 2026-05-04 18:12 | 51.02966 | 3.00991 | 33001 ft | 433 kts | 109° |
| 2026-05-04 18:12 | 51.01280 | 3.10161 | 33002 ft | 433 kts | 110° |
| 2026-05-04 18:13 | 50.99579 | 3.19319 | 32982 ft | 432 kts | 110° |
| 2026-05-04 18:14 | 50.97029 | 3.33033 | 32956 ft | 432 kts | 110° |
| 2026-05-04 18:14 | 50.95325 | 3.42174 | 32963 ft | 432 kts | 110° |
| 2026-05-04 18:15 | 50.91886 | 3.60400 | 32961 ft | 431 kts | 110° |
| 2026-05-04 18:16 | 50.90154 | 3.69501 | 32961 ft | 431 kts | 110° |
| 2026-05-04 18:16 | 50.88406 | 3.78583 | 32950 ft | 431 kts | 111° |
| 2026-05-04 18:17 | 50.85761 | 3.92199 | 32952 ft | 431 kts | 111° |
| 2026-05-04 18:18 | 50.83104 | 4.05806 | 32956 ft | 431 kts | 111° |
| 2026-05-04 18:18 | 50.81319 | 4.14861 | 32956 ft | 431 kts | 111° |
| 2026-05-04 18:19 | 50.78648 | 4.28379 | 32950 ft | 432 kts | 111° |
| 2026-05-04 18:19 | 50.76853 | 4.37431 | 32953 ft | 432 kts | 111° |
| 2026-05-04 18:20 | 50.75034 | 4.46536 | 32951 ft | 432 kts | 112° |
| 2026-05-04 18:20 | 50.73225 | 4.55512 | 32954 ft | 432 kts | 112° |
| 2026-05-04 18:21 | 50.71413 | 4.64564 | 32957 ft | 433 kts | 111° |
| 2026-05-04 18:21 | 50.69656 | 4.73653 | 32945 ft | 433 kts | 112° |
| 2026-05-04 18:22 | 50.67904 | 4.82751 | 32953 ft | 434 kts | 112° |
| 2026-05-04 18:22 | 50.66131 | 4.91839 | 32958 ft | 434 kts | 112° |
| 2026-05-04 18:23 | 50.64299 | 5.00905 | 32964 ft | 434 kts | 113° |
| 2026-05-04 18:23 | 50.62424 | 5.09933 | 32971 ft | 434 kts | 113° |
| 2026-05-04 18:24 | 50.60548 | 5.18969 | 32947 ft | 435 kts | 114° |
| 2026-05-04 18:24 | 50.58674 | 5.28019 | 32961 ft | 435 kts | 114° |
| 2026-05-04 18:25 | 50.56789 | 5.37070 | 32968 ft | 436 kts | 114° |
| 2026-05-04 18:25 | 50.54893 | 5.46117 | 32973 ft | 436 kts | 114° |
| 2026-05-04 18:26 | 50.53186 | 5.55284 | 32982 ft | 443 kts | 104° |
| 2026-05-04 18:26 | 50.52935 | 5.60149 | 32811 ft | 453 kts | 95° |
| 2026-05-04 18:26 | 50.53258 | 5.65123 | 32479 ft | 463 kts | 83° |
| 2026-05-04 18:27 | 50.54168 | 5.69997 | 31877 ft | 468 kts | 72° |
| 2026-05-04 18:27 | 50.55619 | 5.74579 | 31268 ft | 469 kts | 65° |
| 2026-05-04 18:27 | 50.57178 | 5.79078 | 30634 ft | 468 kts | 65° |
| 2026-05-04 18:27 | 50.58719 | 5.83577 | 29993 ft | 466 kts | 66° |
| 2026-05-04 18:28 | 50.60239 | 5.88075 | 29357 ft | 464 kts | 66° |
| 2026-05-04 18:28 | 50.61718 | 5.92491 | 28757 ft | 460 kts | 66° |
| 2026-05-04 18:28 | 50.63203 | 5.96939 | 28155 ft | 457 kts | 65° |
| 2026-05-04 18:28 | 50.64676 | 6.01350 | 27558 ft | 453 kts | 65° |
| 2026-05-04 18:29 | 50.66138 | 6.05724 | 26995 ft | 449 kts | 65° |
| 2026-05-04 18:29 | 50.67589 | 6.10064 | 26421 ft | 445 kts | 65° |
| 2026-05-04 18:29 | 50.69003 | 6.14293 | 25887 ft | 441 kts | 64° |
| 2026-05-04 18:29 | 50.70425 | 6.18544 | 25406 ft | 436 kts | 64° |
| 2026-05-04 18:30 | 50.73031 | 6.27010 | 24435 ft | 424 kts | 70° |
| 2026-05-04 18:30 | 50.74128 | 6.31288 | 23968 ft | 420 kts | 70° |
| 2026-05-04 18:30 | 50.75215 | 6.35549 | 23437 ft | 416 kts | 69° |
| 2026-05-04 18:31 | 50.76284 | 6.39765 | 22916 ft | 412 kts | 70° |
| 2026-05-04 18:31 | 50.77334 | 6.43936 | 22411 ft | 406 kts | 70° |
| 2026-05-04 18:31 | 50.78370 | 6.48073 | 21827 ft | 403 kts | 70° |
| 2026-05-04 18:31 | 50.79412 | 6.52241 | 21023 ft | 408 kts | 70° |
| 2026-05-04 18:32 | 50.80540 | 6.56306 | 20657 ft | 401 kts | 61° |
| 2026-05-04 18:32 | 50.82170 | 6.59797 | 20380 ft | 392 kts | 46° |
| 2026-05-04 18:32 | 50.84259 | 6.62532 | 19897 ft | 389 kts | 32° |
| 2026-05-04 18:32 | 50.86686 | 6.64317 | 19551 ft | 382 kts | 18° |
| 2026-05-04 18:33 | 50.89301 | 6.65186 | 18892 ft | 385 kts | 6° |
| 2026-05-04 18:33 | 50.91954 | 6.65736 | 18393 ft | 384 kts | 7° |
| 2026-05-04 18:33 | 50.94601 | 6.66289 | 17848 ft | 383 kts | 7° |
| 2026-05-04 18:33 | 50.97221 | 6.66844 | 17389 ft | 379 kts | 7° |
| 2026-05-04 18:34 | 50.99719 | 6.67381 | 17225 ft | 368 kts | 7° |
| 2026-05-04 18:34 | 51.02208 | 6.67847 | 16876 ft | 362 kts | 2° |
| 2026-05-04 18:34 | 51.04709 | 6.67761 | 16447 ft | 359 kts | 356° |
| 2026-05-04 18:34 | 51.07198 | 6.67562 | 16012 ft | 357 kts | 356° |
| 2026-05-04 18:35 | 51.09669 | 6.67386 | 15597 ft | 355 kts | 356° |
| 2026-05-04 18:35 | 51.12101 | 6.67218 | 15441 ft | 345 kts | 356° |
| 2026-05-04 18:35 | 51.14464 | 6.67069 | 15308 ft | 335 kts | 359° |
| 2026-05-04 18:35 | 51.16727 | 6.67649 | 15092 ft | 328 kts | 19° |
| 2026-05-04 18:36 | 51.18849 | 6.68963 | 14766 ft | 326 kts | 23° |
| 2026-05-04 18:36 | 51.20939 | 6.70354 | 14439 ft | 325 kts | 23° |
| 2026-05-04 18:36 | 51.22984 | 6.71723 | 14120 ft | 323 kts | 23° |
| 2026-05-04 18:36 | 51.24939 | 6.73033 | 13818 ft | 322 kts | 23° |
| 2026-05-04 18:37 | 51.26987 | 6.74406 | 13477 ft | 320 kts | 23° |
| 2026-05-04 18:37 | 51.29040 | 6.75785 | 13112 ft | 319 kts | 23° |
| 2026-05-04 18:37 | 51.31073 | 6.77153 | 12764 ft | 317 kts | 23° |
| 2026-05-04 18:37 | 51.33105 | 6.78523 | 12421 ft | 315 kts | 23° |
| 2026-05-04 18:38 | 51.35100 | 6.79869 | 12186 ft | 310 kts | 23° |
| 2026-05-04 18:38 | 51.37053 | 6.81191 | 12056 ft | 300 kts | 23° |
| 2026-05-04 18:38 | 51.38931 | 6.82455 | 11922 ft | 284 kts | 23° |
| 2026-05-04 18:38 | 51.40730 | 6.83658 | 11795 ft | 276 kts | 23° |
| 2026-05-04 18:39 | 51.42482 | 6.84830 | 11592 ft | 271 kts | 23° |
| 2026-05-04 18:39 | 51.44217 | 6.85992 | 11326 ft | 269 kts | 23° |
| 2026-05-04 18:39 | 51.45898 | 6.87197 | 11046 ft | 267 kts | 33° |
| 2026-05-04 18:39 | 51.47245 | 6.89177 | 10714 ft | 262 kts | 52° |
| 2026-05-04 18:40 | 51.48372 | 6.91461 | 10266 ft | 261 kts | 54° |
| 2026-05-04 18:40 | 51.49464 | 6.93771 | 9845 ft | 259 kts | 54° |
| 2026-05-04 18:40 | 51.50546 | 6.96080 | 9425 ft | 259 kts | 54° |
| 2026-05-04 18:40 | 51.51624 | 6.98383 | 9114 ft | 257 kts | 54° |
| 2026-05-04 18:41 | 51.52697 | 7.00676 | 8781 ft | 257 kts | 54° |
| 2026-05-04 18:41 | 51.53767 | 7.02963 | 8445 ft | 256 kts | 54° |
| 2026-05-04 18:41 | 51.54833 | 7.05243 | 8104 ft | 255 kts | 54° |
| 2026-05-04 18:41 | 51.55786 | 7.07607 | 7653 ft | 250 kts | 72° |
| 2026-05-04 18:42 | 51.55979 | 7.10307 | 7185 ft | 242 kts | 103° |
| 2026-05-04 18:42 | 51.55277 | 7.12699 | 6811 ft | 236 kts | 135° |
| 2026-05-04 18:42 | 51.54096 | 7.14473 | 6551 ft | 231 kts | 142° |
| 2026-05-04 18:42 | 51.52858 | 7.16066 | 6348 ft | 223 kts | 151° |
| 2026-05-04 18:43 | 51.51426 | 7.16735 | 6107 ft | 214 kts | 184° |
| 2026-05-04 18:43 | 51.50035 | 7.16041 | 5733 ft | 210 kts | 209° |
| 2026-05-04 18:43 | 51.48784 | 7.14814 | 5236 ft | 211 kts | 213° |
| 2026-05-04 18:43 | 51.47561 | 7.13515 | 4777 ft | 211 kts | 213° |
| 2026-05-04 18:44 | 51.46345 | 7.12195 | 4496 ft | 209 kts | 217° |
| 2026-05-04 18:44 | 51.45970 | 7.11695 | 4451 ft | 206 kts | 222° |
| 2026-05-04 18:44 | 51.44468 | 7.08874 | 4230 ft | 195 kts | 231° |
| 2026-05-04 18:44 | 51.43656 | 7.07161 | 4099 ft | 191 kts | 231° |
| 2026-05-04 18:45 | 51.42858 | 7.05466 | 3972 ft | 191 kts | 232° |
| 2026-05-04 18:45 | 51.42058 | 7.03768 | 3845 ft | 191 kts | 232° |
| 2026-05-04 18:45 | 51.41274 | 7.02103 | 3772 ft | 181 kts | 231° |
| 2026-05-04 18:45 | 51.40506 | 7.00475 | 3620 ft | 184 kts | 231° |
| 2026-05-04 18:46 | 51.39732 | 6.98836 | 3410 ft | 185 kts | 231° |
| 2026-05-04 18:46 | 51.38955 | 6.97190 | 3170 ft | 185 kts | 231° |
| 2026-05-04 18:46 | 51.38175 | 6.95540 | 2920 ft | 186 kts | 231° |
| 2026-05-04 18:46 | 51.37396 | 6.93892 | 2672 ft | 186 kts | 232° |
| 2026-05-04 18:47 | 51.36620 | 6.92252 | 2432 ft | 183 kts | 232° |
| 2026-05-04 18:47 | 51.35859 | 6.90644 | 2175 ft | 179 kts | 232° |
| 2026-05-04 18:47 | 51.35117 | 6.89076 | 1930 ft | 175 kts | 231° |
| 2026-05-04 18:47 | 51.34397 | 6.87556 | 1716 ft | 165 kts | 230° |
| 2026-05-04 18:48 | 51.33730 | 6.86148 | 1480 ft | 153 kts | 231° |
| 2026-05-04 18:48 | 51.33108 | 6.84839 | 1289 ft | 143 kts | 230° |
| 2026-05-04 18:48 | 51.32511 | 6.83581 | 1095 ft | 143 kts | 229° |
| 2026-05-04 18:48 | 51.31932 | 6.82362 | 920 ft | 137 kts | 228° |
| 2026-05-04 18:49 | 51.31552 | 6.81561 | 801 ft | 136 kts | 228° |
| 2026-05-04 18:49 | 51.30986 | 6.80382 | 621 ft | 132 kts | 229° |
| 2026-05-04 18:49 | 51.30430 | 6.79192 | 419 ft | 134 kts | 232° |
| 2026-05-04 18:49 | 51.29870 | 6.78016 | 219 ft | 133 kts | 230° |
| 2026-05-04 18:50 | 51.29328 | 6.76871 | 133 ft | 119 kts | 229° |
| 2026-05-04 18:50 | 51.28935 | 6.76064 | 127 ft | 47 kts | 233° |
| 2026-05-04 18:50 | 51.28772 | 6.75764 | 125 ft | 17 kts | 213° |
| 2026-05-04 18:50 | 51.28705 | 6.75705 | 123 ft | 17 kts | 203° |
| 2026-05-04 18:51 | 51.28589 | 6.75681 | 122 ft | 12 kts | 172° |
| 2026-05-04 18:51 | 51.28502 | 6.75730 | 124 ft | 15 kts | 151° |
| 2026-05-04 18:51 | 51.28430 | 6.75815 | 125 ft | 6 kts | 142° |
| 2026-05-04 18:51 | 51.28422 | 6.75824 | 125 ft | 2 kts | 142° |
| 2026-05-04 18:52 | 51.28410 | 6.75839 | 123 ft | 2 kts | 142° |
| 2026-05-04 18:52 | 51.28409 | 6.75841 | 124 ft | 1 kts | 142° |
| 2026-05-04 18:52 | 51.28345 | 6.75919 | 124 ft | 20 kts | 143° |
| 2026-05-04 18:52 | 51.28238 | 6.76041 | 126 ft | 12 kts | 148° |
| 2026-05-04 18:53 | 51.28217 | 6.76062 | 125 ft | 0 kts | 148° |
| 2026-05-04 18:55 | 51.28187 | 6.76133 | 128 ft | 8 kts | 82° |
| 2026-05-04 18:55 | 51.28207 | 6.76225 | 125 ft | 10 kts | 105° |
| 2026-05-04 18:56 | 51.28140 | 6.76229 | 127 ft | 12 kts | 223° |
| 2026-05-04 18:56 | 51.28094 | 6.76194 | 125 ft | 8 kts | 162° |
| 2026-05-04 18:56 | 51.28051 | 6.76215 | 124 ft | 6 kts | 163° |
| 2026-05-04 18:56 | 51.28044 | 6.76218 | 124 ft | 0 kts | 162° |